sensor_id;sensor_type;location;lat;lon;timestamp;pressure;altitude;pressure_sealevel;temperature;humidity
4123;BME280;2075;51.062;6.920;2023-01-28T00:01:51;22529.81;;;-144.48;100.00
4123;BME280;2075;51.062;6.920;2023-01-28T00:04:36;19730.22;;;-144.48;100.00
4123;BME280;2075;51.062;6.920;2023-01-28T00:07:22;17187.19;;;-144.48;100.00
4123;BME280;2075;51.062;6.920;2023-01-28T00:10:09;16678.81;;;-144.48;100.00
4123;BME280;2075;51.062;6.920;2023-01-28T00:12:54;14392.13;;;-144.48;100.00
4123;BME280;2075;51.062;6.920;2023-01-28T00:15:40;12868.53;;;-144.48;100.00
4123;BME280;2075;51.062;6.920;2023-01-28T00:18:27;10330.75;;;-144.48;100.00
4123;BME280;2075;51.062;6.920;2023-01-28T00:21:14;7541.47;;;-144.48;100.00
4123;BME280;2075;51.062;6.920;2023-01-28T00:23:59;8301.94;;;-144.48;100.00
4123;BME280;2075;51.062;6.920;2023-01-28T00:26:45;6781.16;;;-144.48;100.00
4123;BME280;2075;51.062;6.920;2023-01-28T00:29:31;6274.38;;;-144.48;100.00
4123;BME280;2075;51.062;6.920;2023-01-28T00:32:16;5261.06;;;-144.48;100.00
4123;BME280;2075;51.062;6.920;2023-01-28T00:35:06;6781.16;;;-144.48;100.00
4123;BME280;2075;51.062;6.920;2023-01-28T00:37:52;8555.47;;;-144.48;100.00
4123;BME280;2075;51.062;6.920;2023-01-28T00:40:37;8301.94;;;-144.48;100.00
4123;BME280;2075;51.062;6.920;2023-01-28T00:43:23;8301.94;;;-144.48;100.00
4123;BME280;2075;51.062;6.920;2023-01-28T00:46:10;8555.47;;;-144.48;100.00
4123;BME280;2075;51.062;6.920;2023-01-28T00:48:59;8809.03;;;-144.48;100.00
4123;BME280;2075;51.062;6.920;2023-01-28T00:51:45;9823.44;;;-144.48;100.00
4123;BME280;2075;51.062;6.920;2023-01-28T00:54:33;8555.47;;;-144.48;100.00
4123;BME280;2075;51.062;6.920;2023-01-28T00:57:19;8301.94;;;-144.48;100.00
4123;BME280;2075;51.062;6.920;2023-01-28T01:00:06;6021.03;;;-144.48;100.00
4123;BME280;2075;51.062;6.920;2023-01-28T01:02:51;3488.53;;;-144.48;100.00
4123;BME280;2075;51.062;6.920;2023-01-28T01:05:37;1969.97;;;-144.48;100.00
4123;BME280;2075;51.062;6.920;2023-01-28T01:08:26;452.09;;;-144.48;100.00
4123;BME280;2075;51.062;6.920;2023-01-28T01:11:19;-812.25;;;-144.48;100.00
4123;BME280;2075;51.062;6.920;2023-01-28T01:14:05;-559.44;;;-144.48;100.00
4123;BME280;2075;51.062;6.920;2023-01-28T01:16:50;-1570.63;;;-144.48;100.00
4123;BME280;2075;51.062;6.920;2023-01-28T01:19:36;-2581.53;;;-144.48;100.00
4123;BME280;2075;51.062;6.920;2023-01-28T01:22:22;-4602.38;;;-144.48;100.00
4123;BME280;2075;51.062;6.920;2023-01-28T01:25:13;-6369.59;;;-144.48;100.00
4123;BME280;2075;51.062;6.920;2023-01-28T01:27:58;-6874.34;;;-144.48;100.00
4123;BME280;2075;51.062;6.920;2023-01-28T01:30:43;-7379.00;;;-144.48;100.00
4123;BME280;2075;51.062;6.920;2023-01-28T01:33:30;-7883.59;;;-144.48;100.00
4123;BME280;2075;51.062;6.920;2023-01-28T01:36:17;-8640.34;;;-144.48;100.00
4123;BME280;2075;51.062;6.920;2023-01-28T01:39:04;-8388.09;;;-144.48;100.00
4123;BME280;2075;51.062;6.920;2023-01-28T01:41:51;-8388.09;;;-144.48;100.00
4123;BME280;2075;51.062;6.920;2023-01-28T01:45:01;-8892.53;;;-144.48;100.00
4123;BME280;2075;51.062;6.920;2023-01-28T01:47:58;-8892.53;;;-144.48;100.00
4123;BME280;2075;51.062;6.920;2023-01-28T01:50:49;-8892.53;;;-144.48;100.00
4123;BME280;2075;51.062;6.920;2023-01-28T01:53:36;-9396.91;;;-144.48;100.00
4123;BME280;2075;51.062;6.920;2023-01-28T01:56:27;-8892.53;;;-144.48;100.00
4123;BME280;2075;51.062;6.920;2023-01-28T01:59:19;-8892.53;;;-144.48;100.00
4123;BME280;2075;51.062;6.920;2023-01-28T02:02:06;-8892.53;;;-144.48;100.00
4123;BME280;2075;51.062;6.920;2023-01-28T02:04:54;-8388.09;;;-144.48;100.00
4123;BME280;2075;51.062;6.920;2023-01-28T02:07:40;-8892.53;;;-144.48;100.00
4123;BME280;2075;51.062;6.920;2023-01-28T02:10:25;-9396.91;;;-144.48;100.00
4123;BME280;2075;51.062;6.920;2023-01-28T02:13:11;-9649.03;;;-144.48;100.00
4123;BME280;2075;51.062;6.920;2023-01-28T02:15:59;-9901.19;;;-144.48;100.00
4123;BME280;2075;51.062;6.920;2023-01-28T02:18:44;-9144.72;;;-144.48;100.00
4123;BME280;2075;51.062;6.920;2023-01-28T02:25:02;-7883.59;;;-144.48;100.00
4123;BME280;2075;51.062;6.920;2023-01-28T02:28:08;-7631.31;;;-144.48;100.00
4123;BME280;2075;51.062;6.920;2023-01-28T02:31:00;-7883.59;;;-144.48;100.00
4123;BME280;2075;51.062;6.920;2023-01-28T02:33:53;-7631.31;;;-144.48;100.00
4123;BME280;2075;51.062;6.920;2023-01-28T02:36:44;-7126.69;;;-144.48;100.00
4123;BME280;2075;51.062;6.920;2023-01-28T02:39:35;-7126.69;;;-144.48;100.00
4123;BME280;2075;51.062;6.920;2023-01-28T02:42:26;-7379.00;;;-144.48;100.00
4123;BME280;2075;51.062;6.920;2023-01-28T02:45:20;-7126.69;;;-144.48;100.00
4123;BME280;2075;51.062;6.920;2023-01-28T02:48:06;-6874.34;;;-144.48;100.00
4123;BME280;2075;51.062;6.920;2023-01-28T02:50:57;-6621.97;;;-144.48;100.00
4123;BME280;2075;51.062;6.920;2023-01-28T02:53:52;-6369.59;;;-144.48;100.00
4123;BME280;2075;51.062;6.920;2023-01-28T02:56:45;-6369.59;;;-144.48;100.00
4123;BME280;2075;51.062;6.920;2023-01-28T02:59:36;-4349.84;;;-144.48;100.00
4123;BME280;2075;51.062;6.920;2023-01-28T03:02:32;-559.44;;;-144.48;100.00
4123;BME280;2075;51.062;6.920;2023-01-28T03:05:24;7288.00;;;-144.48;100.00
4123;BME280;2075;51.062;6.920;2023-01-28T03:08:10;11599.41;;;-144.48;100.00
4123;BME280;2075;51.062;6.920;2023-01-28T03:11:10;17695.66;;;-144.48;100.00
4123;BME280;2075;51.062;6.920;2023-01-28T03:14:13;24312.59;;;-144.48;100.00
4123;BME280;2075;51.062;6.920;2023-01-28T03:17:21;28646.22;;;-144.48;100.00
4123;BME280;2075;51.062;6.920;2023-01-28T03:20:30;31963.94;;;-144.48;100.00
4123;BME280;2075;51.062;6.920;2023-01-28T03:23:39;35284.97;;;-144.48;100.00
4123;BME280;2075;51.062;6.920;2023-01-28T03:26:48;35796.19;;;-144.48;100.00
4123;BME280;2075;51.062;6.920;2023-01-28T03:29:58;36818.88;;;-144.48;100.00
4123;BME280;2075;51.062;6.920;2023-01-28T03:33:03;39121.03;;;-144.48;100.00
4123;BME280;2075;51.062;6.920;2023-01-28T03:36:09;40912.69;;;-144.48;100.00
4123;BME280;2075;51.062;6.920;2023-01-28T03:39:13;41680.84;;;-144.48;100.00
4123;BME280;2075;51.062;6.920;2023-01-28T03:42:01;44242.59;;;-144.48;100.00
4123;BME280;2075;51.062;6.920;2023-01-28T03:44:47;43217.66;;;-144.48;100.00
4123;BME280;2075;51.062;6.920;2023-01-28T03:47:39;46806.28;;;-144.48;100.00
4123;BME280;2075;51.062;6.920;2023-01-28T03:50:27;49115.28;;;-144.48;100.00
4123;BME280;2075;51.062;6.920;2023-01-28T03:53:18;49371.94;;;-144.48;100.00
4123;BME280;2075;51.062;6.920;2023-01-28T03:56:14;51425.88;;;-144.48;100.00
4123;BME280;2075;51.062;6.920;2023-01-28T03:59:01;52710.22;;;-144.48;100.00
4123;BME280;2075;51.062;6.920;2023-01-28T04:01:46;55537.47;;;-144.48;100.00
4123;BME280;2075;51.062;6.920;2023-01-28T04:04:33;52710.22;;;-144.48;100.00
4123;BME280;2075;51.062;6.920;2023-01-28T04:07:19;47575.78;;;-144.48;100.00
4123;BME280;2075;51.062;6.920;2023-01-28T04:10:25;43730.06;;;-144.48;100.00
4123;BME280;2075;51.062;6.920;2023-01-28T04:13:29;44242.59;;;-144.48;100.00
4123;BME280;2075;51.062;6.920;2023-01-28T04:16:16;47319.28;;;-144.48;100.00
4123;BME280;2075;51.062;6.920;2023-01-28T04:19:02;46293.41;;;-144.48;100.00
4123;BME280;2075;51.062;6.920;2023-01-28T04:21:50;43730.06;;;-144.48;100.00
4123;BME280;2075;51.062;6.920;2023-01-28T04:24:37;44755.16;;;-144.48;100.00
4123;BME280;2075;51.062;6.920;2023-01-28T04:27:23;45011.50;;;-144.48;100.00
4123;BME280;2075;51.062;6.920;2023-01-28T04:30:09;49628.63;;;-144.48;100.00
4123;BME280;2075;51.062;6.920;2023-01-28T04:32:58;53738.03;;;-144.48;100.00
4123;BME280;2075;51.062;6.920;2023-01-28T04:35:59;51939.56;;;-144.48;100.00
4123;BME280;2075;51.062;6.920;2023-01-28T04:39:03;52453.31;;;-144.48;100.00
4123;BME280;2075;51.062;6.920;2023-01-28T04:41:55;53738.03;;;-144.48;100.00
4123;BME280;2075;51.062;6.920;2023-01-28T04:44:54;58109.78;;;-144.48;100.00
4123;BME280;2075;51.062;6.920;2023-01-28T04:47:56;60941.53;;;-144.48;100.00
4123;BME280;2075;51.062;6.920;2023-01-28T04:51:01;58881.84;;;-144.48;100.00
4123;BME280;2075;51.062;6.920;2023-01-28T04:53:59;58624.47;;;-144.48;100.00
4123;BME280;2075;51.062;6.920;2023-01-28T04:56:48;61714.25;;;-144.48;100.00
4123;BME280;2075;51.062;6.920;2023-01-28T04:59:35;62487.13;;;-144.48;100.00
4123;BME280;2075;51.062;6.920;2023-01-28T05:02:24;60941.53;;;-144.48;100.00
4123;BME280;2075;51.062;6.920;2023-01-28T05:05:09;64291.22;;;-144.48;100.00
4123;BME280;2075;51.062;6.920;2023-01-28T05:08:04;64549.03;;;-144.48;100.00
4123;BME280;2075;51.062;6.920;2023-01-28T05:10:50;68934.69;;;-144.48;100.00
4123;BME280;2075;51.062;6.920;2023-01-28T05:13:35;70483.91;;;-144.48;100.00
4123;BME280;2075;51.062;6.920;2023-01-28T05:16:21;72849.44;;;-144.48;100.00
4123;BME280;2075;51.062;6.920;2023-01-28T05:19:08;71369.78;;;-144.48;100.00
4123;BME280;2075;51.062;6.920;2023-01-28T05:21:57;76663.56;;;-144.48;100.00
4123;BME280;2075;51.062;6.920;2023-01-28T05:25:09;80247.22;;;-144.48;100.00
4123;BME280;2075;51.062;6.920;2023-01-28T05:27:54;81230.72;;;-144.48;100.00
4123;BME280;2075;51.062;6.920;2023-01-28T05:30:40;84035.13;;;-144.48;100.00
4123;BME280;2075;51.062;6.920;2023-01-28T05:33:25;85876.94;;;-144.48;100.00
4123;BME280;2075;51.062;6.920;2023-01-28T05:36:12;85260.88;;;-144.48;100.00
4123;BME280;2075;51.062;6.920;2023-01-28T05:38:58;82137.59;;;-144.48;100.00
4123;BME280;2075;51.062;6.920;2023-01-28T05:41:43;85287.22;;;-144.48;100.00
4123;BME280;2075;51.062;6.920;2023-01-28T05:44:30;86509.34;;;-144.48;100.00
4123;BME280;2075;51.062;6.920;2023-01-28T05:47:24;87085.09;;;-144.48;100.00
4123;BME280;2075;51.062;6.920;2023-01-28T05:50:16;85123.06;;;-144.48;100.00
4123;BME280;2075;51.062;6.920;2023-01-28T05:53:23;83526.72;;;-144.48;100.00
4123;BME280;2075;51.062;6.920;2023-01-28T05:56:09;83425.44;;;-144.48;100.00
4123;BME280;2075;51.062;6.920;2023-01-28T05:58:56;86576.22;;;-144.48;100.00
4123;BME280;2075;51.062;6.920;2023-01-28T06:01:41;88906.22;;;-144.48;100.00
4123;BME280;2075;51.062;6.920;2023-01-28T06:04:27;87147.94;;;-144.48;100.00
4123;BME280;2075;51.062;6.920;2023-01-28T06:07:12;90557.81;;;-144.48;100.00
4123;BME280;2075;51.062;6.920;2023-01-28T06:10:05;90943.44;;;-144.48;100.00
4123;BME280;2075;51.062;6.920;2023-01-28T06:12:51;91871.13;;;-144.48;100.00
4123;BME280;2075;51.062;6.920;2023-01-28T06:15:56;92799.09;;;-144.48;100.00
4123;BME280;2075;51.062;6.920;2023-01-28T06:18:55;93310.88;;;-144.48;100.00
4123;BME280;2075;51.062;6.920;2023-01-28T06:21:43;93455.09;;;-144.48;100.00
4123;BME280;2075;51.062;6.920;2023-01-28T06:24:29;94153.91;;;-144.48;100.00
4123;BME280;2075;51.062;6.920;2023-01-28T06:27:16;94129.53;;;-144.48;100.00
4123;BME280;2075;51.062;6.920;2023-01-28T06:30:01;94350.97;;;-144.48;100.00
4123;BME280;2075;51.062;6.920;2023-01-28T06:32:53;94292.03;;;-144.48;100.00
4123;BME280;2075;51.062;6.920;2023-01-28T06:35:38;94247.34;;;-144.48;100.00
4123;BME280;2075;51.062;6.920;2023-01-28T06:38:23;94458.66;;;-144.48;100.00
4123;BME280;2075;51.062;6.920;2023-01-28T06:41:09;94623.22;;;-144.48;100.00
4123;BME280;2075;51.062;6.920;2023-01-28T06:43:56;94558.22;;;-144.48;100.00
4123;BME280;2075;51.062;6.920;2023-01-28T06:46:41;94507.41;;;-144.48;100.00
4123;BME280;2075;51.062;6.920;2023-01-28T06:49:26;94649.63;;;-144.48;100.00
4123;BME280;2075;51.062;6.920;2023-01-28T06:52:12;94755.31;;;-144.48;100.00
4123;BME280;2075;51.062;6.920;2023-01-28T06:54:57;94643.53;;;-144.48;100.00
4123;BME280;2075;51.062;6.920;2023-01-28T06:57:43;94680.13;;;-144.48;100.00
4123;BME280;2075;51.062;6.920;2023-01-28T07:00:30;94739.03;;;-144.48;100.00
4123;BME280;2075;51.062;6.920;2023-01-28T07:03:15;94716.69;;;-144.48;100.00
4123;BME280;2075;51.062;6.920;2023-01-28T07:06:01;94734.97;;;-144.48;100.00
4123;BME280;2075;51.062;6.920;2023-01-28T07:08:46;94663.88;;;-144.48;100.00
4123;BME280;2075;51.062;6.920;2023-01-28T07:11:31;94606.97;;;-144.48;100.00
4123;BME280;2075;51.062;6.920;2023-01-28T07:14:17;94757.34;;;-144.48;100.00
4123;BME280;2075;51.062;6.920;2023-01-28T07:17:04;94991.00;;;-144.48;100.00
4123;BME280;2075;51.062;6.920;2023-01-28T07:19:49;94911.75;;;-144.48;100.00
4123;BME280;2075;51.062;6.920;2023-01-28T07:22:35;94930.06;;;-144.48;100.00
4123;BME280;2075;51.062;6.920;2023-01-28T07:25:22;95019.47;;;-144.48;100.00
4123;BME280;2075;51.062;6.920;2023-01-28T07:28:09;95035.72;;;-144.48;100.00
4123;BME280;2075;51.062;6.920;2023-01-28T07:30:57;95060.09;;;-144.48;100.00
4123;BME280;2075;51.062;6.920;2023-01-28T07:33:44;95049.94;;;-144.48;100.00
4123;BME280;2075;51.062;6.920;2023-01-28T07:36:29;95001.19;;;-144.48;100.00
4123;BME280;2075;51.062;6.920;2023-01-28T07:39:14;95114.97;;;-144.48;100.00
4123;BME280;2075;51.062;6.920;2023-01-28T07:42:00;95114.97;;;-144.48;100.00
4123;BME280;2075;51.062;6.920;2023-01-28T07:44:56;95137.31;;;-144.48;100.00
4123;BME280;2075;51.062;6.920;2023-01-28T07:47:41;95074.31;;;-144.48;100.00
4123;BME280;2075;51.062;6.920;2023-01-28T07:50:29;95084.50;;;-144.48;100.00
4123;BME280;2075;51.062;6.920;2023-01-28T07:53:15;95123.09;;;-144.48;100.00
4123;BME280;2075;51.062;6.920;2023-01-28T07:56:01;94944.28;;;-144.48;100.00
4123;BME280;2075;51.062;6.920;2023-01-28T07:58:48;95060.09;;;-144.48;100.00
4123;BME280;2075;51.062;6.920;2023-01-28T08:01:34;95117.00;;;-144.48;100.00
4123;BME280;2075;51.062;6.920;2023-01-28T08:04:19;95139.34;;;-144.48;100.00
4123;BME280;2075;51.062;6.920;2023-01-28T08:07:06;95021.50;;;-144.48;99.99
4123;BME280;2075;51.062;6.920;2023-01-28T08:09:51;95125.13;;;-144.48;95.88
4123;BME280;2075;51.062;6.920;2023-01-28T08:12:36;95131.22;;;-144.48;95.21
4123;BME280;2075;51.062;6.920;2023-01-28T08:15:24;95110.91;;;-144.48;94.50
4123;BME280;2075;51.062;6.920;2023-01-28T08:18:12;95127.16;;;-144.48;93.05
4123;BME280;2075;51.062;6.920;2023-01-28T08:21:00;95084.50;;;-144.48;91.93
4123;BME280;2075;51.062;6.920;2023-01-28T08:23:47;95157.66;;;-144.48;90.35
4123;BME280;2075;51.062;6.920;2023-01-28T08:26:32;95182.03;;;-144.48;89.09
4123;BME280;2075;51.062;6.920;2023-01-28T08:29:18;95196.25;;;-144.48;89.05
4123;BME280;2075;51.062;6.920;2023-01-28T08:32:03;95222.69;;;-144.48;87.40
4123;BME280;2075;51.062;6.920;2023-01-28T08:34:52;95214.56;;;-144.48;87.04
4123;BME280;2075;51.062;6.920;2023-01-28T08:37:37;95212.53;;;-144.48;87.71
4123;BME280;2075;51.062;6.920;2023-01-28T08:40:24;95196.25;;;-144.48;86.96
4123;BME280;2075;51.062;6.920;2023-01-28T08:43:09;95606.78;;;-144.48;85.90
4123;BME280;2075;51.062;6.920;2023-01-28T08:45:55;95167.81;;;-144.48;85.03
4123;BME280;2075;51.062;6.920;2023-01-28T08:48:40;95163.75;;;-144.48;84.28
4123;BME280;2075;51.062;6.920;2023-01-28T08:51:26;95224.72;;;-144.48;84.01
4123;BME280;2075;51.062;6.920;2023-01-28T08:54:11;95218.63;;;-144.48;83.39
4123;BME280;2075;51.062;6.920;2023-01-28T08:56:58;95208.44;;;-144.48;82.94
4123;BME280;2075;51.062;6.920;2023-01-28T08:59:43;95212.53;;;-144.48;83.42
4123;BME280;2075;51.062;6.920;2023-01-28T09:02:29;95153.59;;;-144.48;82.68
4123;BME280;2075;51.062;6.920;2023-01-28T09:05:14;95216.59;;;-144.48;82.83
4123;BME280;2075;51.062;6.920;2023-01-28T09:08:01;95173.91;;;-144.48;81.42
4123;BME280;2075;51.062;6.920;2023-01-28T09:10:47;95240.97;;;-144.48;81.76
4123;BME280;2075;51.062;6.920;2023-01-28T09:13:34;95228.78;;;-144.48;81.70
4123;BME280;2075;51.062;6.920;2023-01-28T09:16:19;95212.53;;;-144.48;82.73
4123;BME280;2075;51.062;6.920;2023-01-28T09:19:04;95240.97;;;-144.48;83.74
4123;BME280;2075;51.062;6.920;2023-01-28T09:21:50;95259.25;;;-144.48;84.12
4123;BME280;2075;51.062;6.920;2023-01-28T09:24:35;95222.69;;;-144.48;83.44
4123;BME280;2075;51.062;6.920;2023-01-28T09:27:21;95214.56;;;-144.48;81.30
4123;BME280;2075;51.062;6.920;2023-01-28T09:30:08;95236.91;;;-144.48;82.77
4123;BME280;2075;51.062;6.920;2023-01-28T09:32:55;95261.28;;;-144.48;82.97
4123;BME280;2075;51.062;6.920;2023-01-28T09:35:40;95273.47;;;-144.48;83.08
4123;BME280;2075;51.062;6.920;2023-01-28T09:38:26;95234.88;;;-144.48;83.50
4123;BME280;2075;51.062;6.920;2023-01-28T09:41:23;95192.19;;;-144.48;84.10
4123;BME280;2075;51.062;6.920;2023-01-28T09:44:29;95249.09;;;-144.48;84.87
4123;BME280;2075;51.062;6.920;2023-01-28T09:47:24;95287.72;;;-144.48;85.73
4123;BME280;2075;51.062;6.920;2023-01-28T09:50:14;95255.19;;;-144.48;85.48
4123;BME280;2075;51.062;6.920;2023-01-28T09:53:04;95245.03;;;-144.48;82.29
4123;BME280;2075;51.062;6.920;2023-01-28T09:55:54;95228.78;;;-144.48;81.92
4123;BME280;2075;51.062;6.920;2023-01-28T09:58:40;95226.75;;;-144.48;81.39
4123;BME280;2075;51.062;6.920;2023-01-28T10:01:35;95163.75;;;-144.48;78.49
4123;BME280;2075;51.062;6.920;2023-01-28T10:04:45;95173.91;;;-144.48;76.80
4123;BME280;2075;51.062;6.920;2023-01-28T10:07:41;95216.59;;;-144.48;73.36
4123;BME280;2075;51.062;6.920;2023-01-28T10:10:32;95204.38;;;-144.48;71.78
4123;BME280;2075;51.062;6.920;2023-01-28T10:13:25;95212.53;;;-144.48;71.02
4123;BME280;2075;51.062;6.920;2023-01-28T10:16:21;95216.59;;;-144.48;73.15
4123;BME280;2075;51.062;6.920;2023-01-28T10:19:14;95261.28;;;-144.48;72.04
4123;BME280;2075;51.062;6.920;2023-01-28T10:22:08;95200.31;;;-144.48;71.50
4123;BME280;2075;51.062;6.920;2023-01-28T10:25:00;95167.81;;;-144.48;70.78
4123;BME280;2075;51.062;6.920;2023-01-28T10:27:50;95440.13;;;-144.48;69.56
4123;BME280;2075;51.062;6.920;2023-01-28T10:30:37;95206.41;;;-144.48;68.57
4123;BME280;2075;51.062;6.920;2023-01-28T10:33:29;95202.34;;;-144.48;67.70
4123;BME280;2075;51.062;6.920;2023-01-28T10:36:16;95196.25;;;-144.48;68.09
4123;BME280;2075;51.062;6.920;2023-01-28T10:39:03;95228.78;;;-144.48;70.85
4123;BME280;2075;51.062;6.920;2023-01-28T10:41:49;95220.66;;;-144.48;69.88
4123;BME280;2075;51.062;6.920;2023-01-28T10:44:37;95234.88;;;-144.48;70.15
4123;BME280;2075;51.062;6.920;2023-01-28T10:47:30;95243.00;;;-144.48;70.37
4123;BME280;2075;51.062;6.920;2023-01-28T10:50:21;95206.41;;;-144.48;70.90
4123;BME280;2075;51.062;6.920;2023-01-28T10:53:06;95216.59;;;-144.48;70.46
4123;BME280;2075;51.062;6.920;2023-01-28T10:55:55;95240.97;;;-144.48;71.41
4123;BME280;2075;51.062;6.920;2023-01-28T10:58:49;95253.16;;;-144.48;71.80
4123;BME280;2075;51.062;6.920;2023-01-28T11:01:43;95232.84;;;-144.48;72.75
4123;BME280;2075;51.062;6.920;2023-01-28T11:04:30;95228.78;;;-144.48;71.91
4123;BME280;2075;51.062;6.920;2023-01-28T11:07:17;95232.84;;;-144.48;72.39
4123;BME280;2075;51.062;6.920;2023-01-28T11:10:24;95269.41;;;-144.48;72.17
4123;BME280;2075;51.062;6.920;2023-01-28T11:13:16;95261.28;;;-144.48;73.28
4123;BME280;2075;51.062;6.920;2023-01-28T11:16:04;95228.78;;;-144.48;71.91
4123;BME280;2075;51.062;6.920;2023-01-28T11:18:51;95261.28;;;-144.48;69.83
4123;BME280;2075;51.062;6.920;2023-01-28T11:21:37;95192.19;;;-144.48;68.92
4123;BME280;2075;51.062;6.920;2023-01-28T11:24:25;95196.25;;;-144.48;68.93
4123;BME280;2075;51.062;6.920;2023-01-28T11:27:15;95220.66;;;-144.48;69.28
4123;BME280;2075;51.062;6.920;2023-01-28T11:30:03;95234.88;;;-144.48;68.96
4123;BME280;2075;51.062;6.920;2023-01-28T11:32:57;95212.53;;;-144.48;67.31
4123;BME280;2075;51.062;6.920;2023-01-28T11:35:52;95220.66;;;-144.48;66.21
4123;BME280;2075;51.062;6.920;2023-01-28T11:38:46;95208.44;;;-144.48;67.71
4123;BME280;2075;51.062;6.920;2023-01-28T11:41:33;95216.59;;;-144.48;66.63
4123;BME280;2075;51.062;6.920;2023-01-28T11:44:21;95167.81;;;-144.48;64.49
4123;BME280;2075;51.062;6.920;2023-01-28T11:47:21;95190.16;;;-144.48;65.22
4123;BME280;2075;51.062;6.920;2023-01-28T11:50:24;95149.53;;;-144.48;64.56
4123;BME280;2075;51.062;6.920;2023-01-28T11:53:33;95163.75;;;-144.48;65.32
4123;BME280;2075;51.062;6.920;2023-01-28T11:56:34;95204.38;;;-144.48;65.30
4123;BME280;2075;51.062;6.920;2023-01-28T11:59:36;95190.16;;;-144.48;65.25
4123;BME280;2075;51.062;6.920;2023-01-28T12:02:42;95206.41;;;-144.48;62.91
4123;BME280;2075;51.062;6.920;2023-01-28T12:05:45;95202.34;;;-144.48;61.83
4123;BME280;2075;51.062;6.920;2023-01-28T12:08:36;95214.56;;;-144.48;61.09
4123;BME280;2075;51.062;6.920;2023-01-28T12:11:29;95190.16;;;-144.48;60.31
4123;BME280;2075;51.062;6.920;2023-01-28T12:14:43;95204.38;;;-144.48;60.91
4123;BME280;2075;51.062;6.920;2023-01-28T12:17:49;95192.19;;;-144.48;60.20
4123;BME280;2075;51.062;6.920;2023-01-28T12:20:40;95208.44;;;-144.48;61.20
4123;BME280;2075;51.062;6.920;2023-01-28T12:23:43;95224.72;;;-144.48;62.49
4123;BME280;2075;51.062;6.920;2023-01-28T12:26:38;95117.00;;;-144.48;62.07
4123;BME280;2075;51.062;6.920;2023-01-28T12:29:31;95200.31;;;-144.48;61.17
4123;BME280;2075;51.062;6.920;2023-01-28T12:32:30;95175.94;;;-144.48;60.35
4123;BME280;2075;51.062;6.920;2023-01-28T12:35:46;95214.56;;;-144.48;61.48
4123;BME280;2075;51.062;6.920;2023-01-28T12:38:43;95212.53;;;-144.48;62.57
4123;BME280;2075;51.062;6.920;2023-01-28T12:41:34;95180.00;;;-144.48;61.33
4123;BME280;2075;51.062;6.920;2023-01-28T12:44:25;95175.94;;;-144.48;62.30
4123;BME280;2075;51.062;6.920;2023-01-28T12:47:16;95171.88;;;-144.48;61.39
4123;BME280;2075;51.062;6.920;2023-01-28T12:50:09;95129.19;;;-144.48;61.13
4123;BME280;2075;51.062;6.920;2023-01-28T12:53:05;95147.50;;;-144.48;59.90
4123;BME280;2075;51.062;6.920;2023-01-28T12:55:59;95149.53;;;-144.48;61.14
4123;BME280;2075;51.062;6.920;2023-01-28T12:58:53;95151.56;;;-144.48;60.01
4123;BME280;2075;51.062;6.920;2023-01-28T13:01:43;95167.81;;;-144.48;59.35
4123;BME280;2075;51.062;6.920;2023-01-28T13:04:35;95194.22;;;-144.48;61.23
4123;BME280;2075;51.062;6.920;2023-01-28T13:07:25;95133.25;;;-144.48;59.77
4123;BME280;2075;51.062;6.920;2023-01-28T13:10:26;95192.19;;;-144.48;60.27
4123;BME280;2075;51.062;6.920;2023-01-28T13:13:16;95161.72;;;-144.48;58.53
4123;BME280;2075;51.062;6.920;2023-01-28T13:16:04;95151.56;;;-144.48;58.91
4123;BME280;2075;51.062;6.920;2023-01-28T13:18:51;95159.69;;;-144.48;58.22
4123;BME280;2075;51.062;6.920;2023-01-28T13:21:37;95582.41;;;-144.48;60.10
4123;BME280;2075;51.062;6.920;2023-01-28T13:24:30;95249.09;;;-144.48;62.70
4123;BME280;2075;51.062;6.920;2023-01-28T13:27:23;95243.00;;;-144.48;63.69
4123;BME280;2075;51.062;6.920;2023-01-28T13:30:23;95257.22;;;-144.48;65.72
4123;BME280;2075;51.062;6.920;2023-01-28T13:33:25;95265.34;;;-144.48;66.68
4123;BME280;2075;51.062;6.920;2023-01-28T13:36:23;95253.16;;;-144.48;67.23
4123;BME280;2075;51.062;6.920;2023-01-28T13:39:16;95194.22;;;-144.48;66.46
4123;BME280;2075;51.062;6.920;2023-01-28T13:42:24;95234.88;;;-144.48;64.60
4123;BME280;2075;51.062;6.920;2023-01-28T13:45:21;95220.66;;;-144.48;64.41
4123;BME280;2075;51.062;6.920;2023-01-28T13:48:20;95196.25;;;-144.48;62.21
4123;BME280;2075;51.062;6.920;2023-01-28T13:51:15;95204.38;;;-144.48;61.85
4123;BME280;2075;51.062;6.920;2023-01-28T13:54:04;95151.56;;;-144.48;60.91
4123;BME280;2075;51.062;6.920;2023-01-28T13:57:03;95236.91;;;-144.48;63.41
4123;BME280;2075;51.062;6.920;2023-01-28T14:00:02;95157.66;;;-144.48;63.04
4123;BME280;2075;51.062;6.920;2023-01-28T14:03:25;95216.59;;;-144.48;62.34
4123;BME280;2075;51.062;6.920;2023-01-28T14:06:38;95232.84;;;-144.48;63.62
4123;BME280;2075;51.062;6.920;2023-01-28T14:09:41;95171.88;;;-144.48;63.51
4123;BME280;2075;51.062;6.920;2023-01-28T14:12:49;95184.06;;;-144.48;63.65
4123;BME280;2075;51.062;6.920;2023-01-28T14:15:55;95257.22;;;-144.48;63.39
4123;BME280;2075;51.062;6.920;2023-01-28T14:18:46;95210.47;;;-144.48;64.20
4123;BME280;2075;51.062;6.920;2023-01-28T14:21:33;95208.44;;;-144.48;62.88
4123;BME280;2075;51.062;6.920;2023-01-28T14:24:19;95192.19;;;-144.48;62.25
4123;BME280;2075;51.062;6.920;2023-01-28T14:27:08;95360.88;;;-144.48;61.65
4123;BME280;2075;51.062;6.920;2023-01-28T14:30:03;95212.53;;;-144.48;61.43
4123;BME280;2075;51.062;6.920;2023-01-28T14:32:54;95212.53;;;-144.48;62.13
4123;BME280;2075;51.062;6.920;2023-01-28T14:35:44;95196.25;;;-144.48;61.02
4123;BME280;2075;51.062;6.920;2023-01-28T14:38:33;95267.38;;;-144.48;61.64
4123;BME280;2075;51.062;6.920;2023-01-28T14:41:24;95523.47;;;-144.48;62.35
4123;BME280;2075;51.062;6.920;2023-01-28T14:44:12;95234.88;;;-144.48;62.43
4123;BME280;2075;51.062;6.920;2023-01-28T14:47:17;95236.91;;;-144.48;62.08
4123;BME280;2075;51.062;6.920;2023-01-28T14:50:24;95273.47;;;-144.48;63.04
4123;BME280;2075;51.062;6.920;2023-01-28T14:53:38;95249.09;;;-144.48;64.18
4123;BME280;2075;51.062;6.920;2023-01-28T14:56:35;95232.84;;;-144.48;64.69
4123;BME280;2075;51.062;6.920;2023-01-28T14:59:25;95261.28;;;-144.48;65.46
4123;BME280;2075;51.062;6.920;2023-01-28T15:02:18;95259.25;;;-144.48;65.16
4123;BME280;2075;51.062;6.920;2023-01-28T15:05:09;95261.28;;;-144.48;66.55